sensor_id;sensor_type;location;lat;lon;timestamp;temperature;humidity
20712;DHT22;10517;50.742;4.224;2023-12-14T00:00:27;9.50;99.90
20712;DHT22;10517;50.742;4.224;2023-12-14T00:02:53;9.50;99.90
20712;DHT22;10517;50.742;4.224;2023-12-14T00:05:19;9.40;99.90
20712;DHT22;10517;50.742;4.224;2023-12-14T00:07:44;9.50;99.90
20712;DHT22;10517;50.742;4.224;2023-12-14T00:10:10;9.50;99.90
20712;DHT22;10517;50.742;4.224;2023-12-14T00:12:37;9.60;99.90
20712;DHT22;10517;50.742;4.224;2023-12-14T00:15:04;9.60;99.90
20712;DHT22;10517;50.742;4.224;2023-12-14T00:17:29;9.60;99.90
20712;DHT22;10517;50.742;4.224;2023-12-14T00:19:55;9.60;99.90
20712;DHT22;10517;50.742;4.224;2023-12-14T00:22:20;9.60;99.90
20712;DHT22;10517;50.742;4.224;2023-12-14T00:24:46;9.60;99.90
20712;DHT22;10517;50.742;4.224;2023-12-14T00:27:12;9.60;99.90
20712;DHT22;10517;50.742;4.224;2023-12-14T00:29:38;9.60;99.90
20712;DHT22;10517;50.742;4.224;2023-12-14T00:32:03;9.60;99.90
20712;DHT22;10517;50.742;4.224;2023-12-14T00:34:29;9.60;99.90
20712;DHT22;10517;50.742;4.224;2023-12-14T00:36:55;9.50;99.90
20712;DHT22;10517;50.742;4.224;2023-12-14T00:39:20;9.50;99.90
20712;DHT22;10517;50.742;4.224;2023-12-14T00:41:46;9.50;99.90
20712;DHT22;10517;50.742;4.224;2023-12-14T00:44:13;9.60;99.90
20712;DHT22;10517;50.742;4.224;2023-12-14T00:46:38;9.50;99.90
20712;DHT22;10517;50.742;4.224;2023-12-14T00:49:04;9.50;99.90
20712;DHT22;10517;50.742;4.224;2023-12-14T00:51:30;9.40;99.90
20712;DHT22;10517;50.742;4.224;2023-12-14T00:53:56;9.50;99.90
20712;DHT22;10517;50.742;4.224;2023-12-14T00:56:21;9.50;99.90
20712;DHT22;10517;50.742;4.224;2023-12-14T00:58:47;9.40;99.90
20712;DHT22;10517;50.742;4.224;2023-12-14T01:01:12;9.20;99.90
20712;DHT22;10517;50.742;4.224;2023-12-14T01:03:38;9.20;99.90
20712;DHT22;10517;50.742;4.224;2023-12-14T01:06:04;9.20;99.90
20712;DHT22;10517;50.742;4.224;2023-12-14T01:08:30;9.30;99.90
20712;DHT22;10517;50.742;4.224;2023-12-14T01:10:55;9.40;99.90
20712;DHT22;10517;50.742;4.224;2023-12-14T01:13:21;9.40;99.90
20712;DHT22;10517;50.742;4.224;2023-12-14T01:15:47;9.40;99.90
20712;DHT22;10517;50.742;4.224;2023-12-14T01:18:12;9.40;99.90
20712;DHT22;10517;50.742;4.224;2023-12-14T01:20:38;9.40;99.90
20712;DHT22;10517;50.742;4.224;2023-12-14T01:23:04;9.40;99.90
20712;DHT22;10517;50.742;4.224;2023-12-14T01:25:29;9.40;99.90
20712;DHT22;10517;50.742;4.224;2023-12-14T01:27:55;9.40;99.90
20712;DHT22;10517;50.742;4.224;2023-12-14T01:30:21;9.30;99.90
20712;DHT22;10517;50.742;4.224;2023-12-14T01:32:47;9.30;99.90
20712;DHT22;10517;50.742;4.224;2023-12-14T01:35:12;9.40;99.90
20712;DHT22;10517;50.742;4.224;2023-12-14T01:37:38;9.40;99.90
20712;DHT22;10517;50.742;4.224;2023-12-14T01:40:04;9.40;99.90
20712;DHT22;10517;50.742;4.224;2023-12-14T01:42:30;9.40;99.90
20712;DHT22;10517;50.742;4.224;2023-12-14T01:44:56;9.40;99.90
20712;DHT22;10517;50.742;4.224;2023-12-14T01:47:21;9.40;99.90
20712;DHT22;10517;50.742;4.224;2023-12-14T01:49:47;9.40;99.90
20712;DHT22;10517;50.742;4.224;2023-12-14T01:52:13;9.30;99.90
20712;DHT22;10517;50.742;4.224;2023-12-14T01:54:38;9.30;99.90
20712;DHT22;10517;50.742;4.224;2023-12-14T01:57:04;9.40;99.90
20712;DHT22;10517;50.742;4.224;2023-12-14T01:59:30;9.40;99.90
20712;DHT22;10517;50.742;4.224;2023-12-14T02:01:56;9.40;99.90
20712;DHT22;10517;50.742;4.224;2023-12-14T02:04:24;9.30;99.90
20712;DHT22;10517;50.742;4.224;2023-12-14T02:06:50;9.30;99.90
20712;DHT22;10517;50.742;4.224;2023-12-14T02:09:16;9.30;99.90
20712;DHT22;10517;50.742;4.224;2023-12-14T02:11:42;9.30;99.90
20712;DHT22;10517;50.742;4.224;2023-12-14T02:14:09;9.30;99.90
20712;DHT22;10517;50.742;4.224;2023-12-14T02:16:35;9.20;99.90
20712;DHT22;10517;50.742;4.224;2023-12-14T02:19:04;9.10;99.90
20712;DHT22;10517;50.742;4.224;2023-12-14T02:21:29;9.20;99.90
20712;DHT22;10517;50.742;4.224;2023-12-14T02:23:55;9.20;99.90
20712;DHT22;10517;50.742;4.224;2023-12-14T02:26:21;9.20;99.90
20712;DHT22;10517;50.742;4.224;2023-12-14T02:28:46;9.20;99.90
20712;DHT22;10517;50.742;4.224;2023-12-14T02:31:12;9.20;99.90
20712;DHT22;10517;50.742;4.224;2023-12-14T02:33:38;9.10;99.90
20712;DHT22;10517;50.742;4.224;2023-12-14T02:36:04;9.10;99.90
20712;DHT22;10517;50.742;4.224;2023-12-14T02:38:30;9.10;99.90
20712;DHT22;10517;50.742;4.224;2023-12-14T02:40:56;9.20;99.90
20712;DHT22;10517;50.742;4.224;2023-12-14T02:43:21;9.20;99.90
20712;DHT22;10517;50.742;4.224;2023-12-14T02:45:49;9.10;99.90
20712;DHT22;10517;50.742;4.224;2023-12-14T02:48:15;9.10;99.90
20712;DHT22;10517;50.742;4.224;2023-12-14T02:50:41;9.00;99.90
20712;DHT22;10517;50.742;4.224;2023-12-14T02:53:06;8.80;99.90
20712;DHT22;10517;50.742;4.224;2023-12-14T02:55:32;8.70;99.90
20712;DHT22;10517;50.742;4.224;2023-12-14T02:57:58;8.70;99.90
20712;DHT22;10517;50.742;4.224;2023-12-14T03:00:23;8.70;99.90
20712;DHT22;10517;50.742;4.224;2023-12-14T03:02:49;8.70;99.90
20712;DHT22;10517;50.742;4.224;2023-12-14T03:05:15;8.60;99.90
20712;DHT22;10517;50.742;4.224;2023-12-14T03:07:41;8.70;99.90
20712;DHT22;10517;50.742;4.224;2023-12-14T03:10:07;8.70;99.90
20712;DHT22;10517;50.742;4.224;2023-12-14T03:12:33;8.60;99.90
20712;DHT22;10517;50.742;4.224;2023-12-14T03:14:58;8.50;99.90
20712;DHT22;10517;50.742;4.224;2023-12-14T03:17:27;8.40;99.90
20712;DHT22;10517;50.742;4.224;2023-12-14T03:19:54;8.40;99.90
20712;DHT22;10517;50.742;4.224;2023-12-14T03:22:20;8.30;99.90
20712;DHT22;10517;50.742;4.224;2023-12-14T03:24:46;8.30;99.90
20712;DHT22;10517;50.742;4.224;2023-12-14T03:27:11;8.20;99.90
20712;DHT22;10517;50.742;4.224;2023-12-14T03:29:37;8.10;99.90
20712;DHT22;10517;50.742;4.224;2023-12-14T03:32:03;8.00;99.90
20712;DHT22;10517;50.742;4.224;2023-12-14T03:34:28;8.00;99.90
20712;DHT22;10517;50.742;4.224;2023-12-14T03:36:54;8.10;99.90
20712;DHT22;10517;50.742;4.224;2023-12-14T03:39:20;8.10;99.90
20712;DHT22;10517;50.742;4.224;2023-12-14T03:41:45;8.20;99.90
20712;DHT22;10517;50.742;4.224;2023-12-14T03:44:11;8.10;99.90
20712;DHT22;10517;50.742;4.224;2023-12-14T03:46:37;8.20;99.90
20712;DHT22;10517;50.742;4.224;2023-12-14T03:49:03;8.10;99.90
20712;DHT22;10517;50.742;4.224;2023-12-14T03:51:29;8.00;99.90
20712;DHT22;10517;50.742;4.224;2023-12-14T03:53:55;8.00;99.90
20712;DHT22;10517;50.742;4.224;2023-12-14T03:56:21;8.00;99.90
20712;DHT22;10517;50.742;4.224;2023-12-14T03:58:47;8.00;99.90
20712;DHT22;10517;50.742;4.224;2023-12-14T04:01:19;8.00;99.90
20712;DHT22;10517;50.742;4.224;2023-12-14T04:03:46;7.80;99.90
20712;DHT22;10517;50.742;4.224;2023-12-14T04:06:13;7.80;99.90
20712;DHT22;10517;50.742;4.224;2023-12-14T04:08:39;7.80;99.90
20712;DHT22;10517;50.742;4.224;2023-12-14T04:11:05;7.80;99.90
20712;DHT22;10517;50.742;4.224;2023-12-14T04:13:31;7.70;99.90
20712;DHT22;10517;50.742;4.224;2023-12-14T04:15:57;7.70;99.90
20712;DHT22;10517;50.742;4.224;2023-12-14T04:18:23;7.60;99.90
20712;DHT22;10517;50.742;4.224;2023-12-14T04:20:49;7.60;99.90
20712;DHT22;10517;50.742;4.224;2023-12-14T04:23:14;7.60;99.90
20712;DHT22;10517;50.742;4.224;2023-12-14T04:25:40;7.50;99.90
20712;DHT22;10517;50.742;4.224;2023-12-14T04:28:05;7.40;99.90
20712;DHT22;10517;50.742;4.224;2023-12-14T04:30:31;7.30;99.90
20712;DHT22;10517;50.742;4.224;2023-12-14T04:32:57;7.20;99.90
20712;DHT22;10517;50.742;4.224;2023-12-14T04:35:22;7.10;99.90
20712;DHT22;10517;50.742;4.224;2023-12-14T04:37:48;7.20;99.90
20712;DHT22;10517;50.742;4.224;2023-12-14T04:40:14;7.10;99.90
20712;DHT22;10517;50.742;4.224;2023-12-14T04:42:40;7.10;99.90
20712;DHT22;10517;50.742;4.224;2023-12-14T04:45:06;7.20;99.90
20712;DHT22;10517;50.742;4.224;2023-12-14T04:47:31;7.20;99.90
20712;DHT22;10517;50.742;4.224;2023-12-14T04:49:57;7.20;99.90
20712;DHT22;10517;50.742;4.224;2023-12-14T04:52:23;7.30;99.90
20712;DHT22;10517;50.742;4.224;2023-12-14T04:54:48;7.30;99.90
20712;DHT22;10517;50.742;4.224;2023-12-14T04:57:15;7.20;99.90
20712;DHT22;10517;50.742;4.224;2023-12-14T04:59:43;7.10;99.90
20712;DHT22;10517;50.742;4.224;2023-12-14T05:02:09;7.20;99.90
20712;DHT22;10517;50.742;4.224;2023-12-14T05:04:35;7.20;99.90
20712;DHT22;10517;50.742;4.224;2023-12-14T05:07:02;7.20;99.90
20712;DHT22;10517;50.742;4.224;2023-12-14T05:09:28;7.20;99.90
20712;DHT22;10517;50.742;4.224;2023-12-14T05:11:54;7.30;99.90
20712;DHT22;10517;50.742;4.224;2023-12-14T05:14:20;7.30;99.90
20712;DHT22;10517;50.742;4.224;2023-12-14T05:16:45;7.20;99.90
20712;DHT22;10517;50.742;4.224;2023-12-14T05:19:11;7.20;99.90
20712;DHT22;10517;50.742;4.224;2023-12-14T05:21:38;7.10;99.90
20712;DHT22;10517;50.742;4.224;2023-12-14T05:24:04;7.00;99.90
20712;DHT22;10517;50.742;4.224;2023-12-14T05:26:30;7.00;99.90
20712;DHT22;10517;50.742;4.224;2023-12-14T05:28:56;7.10;99.90
20712;DHT22;10517;50.742;4.224;2023-12-14T05:31:21;7.10;99.90
20712;DHT22;10517;50.742;4.224;2023-12-14T05:33:47;6.90;99.90
20712;DHT22;10517;50.742;4.224;2023-12-14T05:36:13;6.80;99.90
20712;DHT22;10517;50.742;4.224;2023-12-14T05:38:39;6.80;99.90
20712;DHT22;10517;50.742;4.224;2023-12-14T05:41:05;6.80;99.90
20712;DHT22;10517;50.742;4.224;2023-12-14T05:43:31;6.90;99.90
20712;DHT22;10517;50.742;4.224;2023-12-14T05:45:57;6.90;99.90
20712;DHT22;10517;50.742;4.224;2023-12-14T05:48:23;6.90;99.90
20712;DHT22;10517;50.742;4.224;2023-12-14T05:50:49;6.80;99.90
20712;DHT22;10517;50.742;4.224;2023-12-14T05:53:14;6.80;99.90
20712;DHT22;10517;50.742;4.224;2023-12-14T05:55:41;6.80;99.90
20712;DHT22;10517;50.742;4.224;2023-12-14T05:58:07;6.80;99.90
20712;DHT22;10517;50.742;4.224;2023-12-14T06:00:33;6.90;99.90
20712;DHT22;10517;50.742;4.224;2023-12-14T06:03:00;6.90;99.90
20712;DHT22;10517;50.742;4.224;2023-12-14T06:05:26;6.80;99.90
20712;DHT22;10517;50.742;4.224;2023-12-14T06:07:52;6.70;99.90
20712;DHT22;10517;50.742;4.224;2023-12-14T06:10:18;6.70;99.90
20712;DHT22;10517;50.742;4.224;2023-12-14T06:12:44;6.70;99.90
20712;DHT22;10517;50.742;4.224;2023-12-14T06:15:09;6.90;99.90
20712;DHT22;10517;50.742;4.224;2023-12-14T06:17:36;6.90;99.90
20712;DHT22;10517;50.742;4.224;2023-12-14T06:20:05;7.00;99.90
20712;DHT22;10517;50.742;4.224;2023-12-14T06:22:30;7.00;99.90
20712;DHT22;10517;50.742;4.224;2023-12-14T06:24:56;7.00;99.90
20712;DHT22;10517;50.742;4.224;2023-12-14T06:27:22;7.00;99.90
20712;DHT22;10517;50.742;4.224;2023-12-14T06:29:52;7.00;99.90
20712;DHT22;10517;50.742;4.224;2023-12-14T06:32:17;7.10;99.90
20712;DHT22;10517;50.742;4.224;2023-12-14T06:34:43;7.10;99.90
20712;DHT22;10517;50.742;4.224;2023-12-14T06:37:09;7.10;99.90
20712;DHT22;10517;50.742;4.224;2023-12-14T06:39:36;7.10;99.90
20712;DHT22;10517;50.742;4.224;2023-12-14T06:42:01;7.00;99.90
20712;DHT22;10517;50.742;4.224;2023-12-14T06:44:27;6.90;99.90
20712;DHT22;10517;50.742;4.224;2023-12-14T06:46:54;6.90;99.90
20712;DHT22;10517;50.742;4.224;2023-12-14T06:49:21;6.90;99.90
20712;DHT22;10517;50.742;4.224;2023-12-14T06:51:46;7.00;99.90
20712;DHT22;10517;50.742;4.224;2023-12-14T06:54:12;7.10;99.90
20712;DHT22;10517;50.742;4.224;2023-12-14T06:56:38;7.00;99.90
20712;DHT22;10517;50.742;4.224;2023-12-14T06:59:03;7.00;99.90
20712;DHT22;10517;50.742;4.224;2023-12-14T07:01:29;6.90;99.90
20712;DHT22;10517;50.742;4.224;2023-12-14T07:03:55;6.90;99.90
20712;DHT22;10517;50.742;4.224;2023-12-14T07:06:20;6.80;99.90
20712;DHT22;10517;50.742;4.224;2023-12-14T07:08:46;6.70;99.90
20712;DHT22;10517;50.742;4.224;2023-12-14T07:11:13;6.70;99.90
20712;DHT22;10517;50.742;4.224;2023-12-14T07:13:39;6.60;99.90
20712;DHT22;10517;50.742;4.224;2023-12-14T07:16:06;6.50;99.90
20712;DHT22;10517;50.742;4.224;2023-12-14T07:18:34;6.50;99.90
20712;DHT22;10517;50.742;4.224;2023-12-14T07:21:00;6.50;99.90
20712;DHT22;10517;50.742;4.224;2023-12-14T07:23:27;6.50;99.90
20712;DHT22;10517;50.742;4.224;2023-12-14T07:25:52;6.40;99.90
20712;DHT22;10517;50.742;4.224;2023-12-14T07:28:18;6.50;99.90
20712;DHT22;10517;50.742;4.224;2023-12-14T07:30:45;6.50;99.90
20712;DHT22;10517;50.742;4.224;2023-12-14T07:33:12;6.60;99.90
20712;DHT22;10517;50.742;4.224;2023-12-14T07:35:38;6.60;99.90
20712;DHT22;10517;50.742;4.224;2023-12-14T07:38:03;6.70;99.90
20712;DHT22;10517;50.742;4.224;2023-12-14T07:40:29;6.70;99.90
20712;DHT22;10517;50.742;4.224;2023-12-14T07:42:55;6.70;99.90
20712;DHT22;10517;50.742;4.224;2023-12-14T07:45:20;6.70;99.90
20712;DHT22;10517;50.742;4.224;2023-12-14T07:47:46;6.70;99.90
20712;DHT22;10517;50.742;4.224;2023-12-14T07:50:12;6.60;99.90
20712;DHT22;10517;50.742;4.224;2023-12-14T07:52:39;6.60;99.90
20712;DHT22;10517;50.742;4.224;2023-12-14T07:55:05;6.60;99.90
20712;DHT22;10517;50.742;4.224;2023-12-14T07:57:31;6.60;99.90
20712;DHT22;10517;50.742;4.224;2023-12-14T07:59:57;6.60;99.90
20712;DHT22;10517;50.742;4.224;2023-12-14T08:02:23;6.60;99.90
20712;DHT22;10517;50.742;4.224;2023-12-14T08:04:48;6.70;99.90
20712;DHT22;10517;50.742;4.224;2023-12-14T08:07:14;6.80;99.90
20712;DHT22;10517;50.742;4.224;2023-12-14T08:09:40;6.90;99.90
20712;DHT22;10517;50.742;4.224;2023-12-14T08:12:06;7.00;99.90
20712;DHT22;10517;50.742;4.224;2023-12-14T08:14:35;7.10;99.90
20712;DHT22;10517;50.742;4.224;2023-12-14T08:17:03;7.10;99.90
20712;DHT22;10517;50.742;4.224;2023-12-14T08:19:28;7.00;99.90
20712;DHT22;10517;50.742;4.224;2023-12-14T08:21:54;7.00;99.90
20712;DHT22;10517;50.742;4.224;2023-12-14T08:24:20;7.10;99.90
20712;DHT22;10517;50.742;4.224;2023-12-14T08:26:46;7.20;99.90
20712;DHT22;10517;50.742;4.224;2023-12-14T08:29:11;7.20;99.90
20712;DHT22;10517;50.742;4.224;2023-12-14T08:31:37;7.30;99.90
20712;DHT22;10517;50.742;4.224;2023-12-14T08:34:02;7.40;99.90
20712;DHT22;10517;50.742;4.224;2023-12-14T08:36:29;7.50;99.90
20712;DHT22;10517;50.742;4.224;2023-12-14T08:38:55;7.40;99.90
20712;DHT22;10517;50.742;4.224;2023-12-14T08:41:20;7.40;99.90
20712;DHT22;10517;50.742;4.224;2023-12-14T08:43:46;7.40;99.90
20712;DHT22;10517;50.742;4.224;2023-12-14T08:46:12;7.40;99.90
20712;DHT22;10517;50.742;4.224;2023-12-14T08:48:38;7.40;99.90
20712;DHT22;10517;50.742;4.224;2023-12-14T08:51:04;7.40;99.90
20712;DHT22;10517;50.742;4.224;2023-12-14T08:53:30;7.40;99.90
20712;DHT22;10517;50.742;4.224;2023-12-14T08:55:55;7.30;99.90
20712;DHT22;10517;50.742;4.224;2023-12-14T08:58:21;7.20;99.90
20712;DHT22;10517;50.742;4.224;2023-12-14T09:00:47;7.20;99.90
20712;DHT22;10517;50.742;4.224;2023-12-14T09:03:18;7.20;99.90
20712;DHT22;10517;50.742;4.224;2023-12-14T09:05:44;7.30;99.90
20712;DHT22;10517;50.742;4.224;2023-12-14T09:08:10;7.40;99.90
20712;DHT22;10517;50.742;4.224;2023-12-14T09:10:37;7.50;99.90
20712;DHT22;10517;50.742;4.224;2023-12-14T09:13:04;7.60;99.90
20712;DHT22;10517;50.742;4.224;2023-12-14T09:15:33;7.70;99.90
20712;DHT22;10517;50.742;4.224;2023-12-14T09:17:59;7.70;99.90
20712;DHT22;10517;50.742;4.224;2023-12-14T09:20:25;7.70;99.90
20712;DHT22;10517;50.742;4.224;2023-12-14T09:22:51;7.70;99.90
20712;DHT22;10517;50.742;4.224;2023-12-14T09:25:17;7.70;99.90
20712;DHT22;10517;50.742;4.224;2023-12-14T09:27:43;7.70;99.90
20712;DHT22;10517;50.742;4.224;2023-12-14T09:30:09;7.90;99.90
20712;DHT22;10517;50.742;4.224;2023-12-14T09:32:36;7.80;99.90
20712;DHT22;10517;50.742;4.224;2023-12-14T09:35:02;7.70;99.90
20712;DHT22;10517;50.742;4.224;2023-12-14T09:37:28;7.60;99.90
20712;DHT22;10517;50.742;4.224;2023-12-14T09:39:53;7.60;99.90
20712;DHT22;10517;50.742;4.224;2023-12-14T09:42:20;7.50;99.90
20712;DHT22;10517;50.742;4.224;2023-12-14T09:44:50;7.60;99.90
20712;DHT22;10517;50.742;4.224;2023-12-14T09:47:16;7.80;99.90
20712;DHT22;10517;50.742;4.224;2023-12-14T09:49:42;7.80;99.90
20712;DHT22;10517;50.742;4.224;2023-12-14T09:52:11;7.90;99.90
20712;DHT22;10517;50.742;4.224;2023-12-14T09:54:36;7.80;99.90
20712;DHT22;10517;50.742;4.224;2023-12-14T09:57:02;7.70;99.90
20712;DHT22;10517;50.742;4.224;2023-12-14T09:59:28;7.60;99.90
20712;DHT22;10517;50.742;4.224;2023-12-14T10:02:09;7.60;99.90
20712;DHT22;10517;50.742;4.224;2023-12-14T10:04:35;7.60;99.90
20712;DHT22;10517;50.742;4.224;2023-12-14T10:07:02;7.70;99.90
20712;DHT22;10517;50.742;4.224;2023-12-14T10:09:32;7.70;99.90
20712;DHT22;10517;50.742;4.224;2023-12-14T10:12:08;7.70;99.90
20712;DHT22;10517;50.742;4.224;2023-12-14T10:14:36;7.90;99.90
20712;DHT22;10517;50.742;4.224;2023-12-14T10:17:20;8.00;99.90
20712;DHT22;10517;50.742;4.224;2023-12-14T10:19:47;8.20;99.90
20712;DHT22;10517;50.742;4.224;2023-12-14T10:22:14;8.30;99.90
20712;DHT22;10517;50.742;4.224;2023-12-14T10:24:46;8.40;99.90
20712;DHT22;10517;50.742;4.224;2023-12-14T10:27:13;8.40;99.90
20712;DHT22;10517;50.742;4.224;2023-12-14T10:29:39;8.30;99.90
20712;DHT22;10517;50.742;4.224;2023-12-14T10:32:06;8.30;99.90
20712;DHT22;10517;50.742;4.224;2023-12-14T10:34:36;8.40;99.90
20712;DHT22;10517;50.742;4.224;2023-12-14T10:37:05;8.60;99.90
20712;DHT22;10517;50.742;4.224;2023-12-14T10:39:32;8.70;99.90
20712;DHT22;10517;50.742;4.224;2023-12-14T10:42:02;8.90;99.90
20712;DHT22;10517;50.742;4.224;2023-12-14T10:44:30;9.00;99.90
20712;DHT22;10517;50.742;4.224;2023-12-14T10:47:00;9.10;99.90
20712;DHT22;10517;50.742;4.224;2023-12-14T10:49:26;9.10;99.90
20712;DHT22;10517;50.742;4.224;2023-12-14T10:51:54;9.40;99.90
20712;DHT22;10517;50.742;4.224;2023-12-14T10:54:21;9.60;99.90
20712;DHT22;10517;50.742;4.224;2023-12-14T10:56:48;9.50;99.90
20712;DHT22;10517;50.742;4.224;2023-12-14T10:59:15;9.10;99.90
20712;DHT22;10517;50.742;4.224;2023-12-14T11:01:41;8.90;99.90
20712;DHT22;10517;50.742;4.224;2023-12-14T11:04:07;8.90;99.90
20712;DHT22;10517;50.742;4.224;2023-12-14T11:06:39;9.00;99.90
20712;DHT22;10517;50.742;4.224;2023-12-14T11:09:06;9.10;99.90
20712;DHT22;10517;50.742;4.224;2023-12-14T11:11:55;9.20;99.90
20712;DHT22;10517;50.742;4.224;2023-12-14T11:14:28;9.20;99.90
20712;DHT22;10517;50.742;4.224;2023-12-14T11:17:01;9.20;99.90
20712;DHT22;10517;50.742;4.224;2023-12-14T11:19:30;9.40;99.90
20712;DHT22;10517;50.742;4.224;2023-12-14T11:22:11;9.40;99.90
20712;DHT22;10517;50.742;4.224;2023-12-14T11:24:41;9.40;99.90
20712;DHT22;10517;50.742;4.224;2023-12-14T11:27:09;9.50;99.90
20712;DHT22;10517;50.742;4.224;2023-12-14T11:29:38;9.40;99.90
20712;DHT22;10517;50.742;4.224;2023-12-14T11:32:07;9.30;99.90
20712;DHT22;10517;50.742;4.224;2023-12-14T11:34:32;9.30;99.90
20712;DHT22;10517;50.742;4.224;2023-12-14T11:36:58;9.40;99.90
20712;DHT22;10517;50.742;4.224;2023-12-14T11:39:24;9.50;99.90
20712;DHT22;10517;50.742;4.224;2023-12-14T11:42:03;9.50;99.90
20712;DHT22;10517;50.742;4.224;2023-12-14T11:44:29;9.40;99.90
20712;DHT22;10517;50.742;4.224;2023-12-14T11:46:56;9.30;99.90
20712;DHT22;10517;50.742;4.224;2023-12-14T11:49:27;9.20;99.90
20712;DHT22;10517;50.742;4.224;2023-12-14T11:51:56;9.10;99.90
20712;DHT22;10517;50.742;4.224;2023-12-14T11:54:22;9.00;99.90
20712;DHT22;10517;50.742;4.224;2023-12-14T11:56:48;8.90;99.90
20712;DHT22;10517;50.742;4.224;2023-12-14T11:59:17;8.80;99.90
20712;DHT22;10517;50.742;4.224;2023-12-14T12:02:03;8.70;99.90
20712;DHT22;10517;50.742;4.224;2023-12-14T12:04:29;8.60;99.90
20712;DHT22;10517;50.742;4.224;2023-12-14T12:07:04;8.60;99.90
20712;DHT22;10517;50.742;4.224;2023-12-14T12:12:04;8.70;99.90
20712;DHT22;10517;50.742;4.224;2023-12-14T12:14:30;8.80;99.90
20712;DHT22;10517;50.742;4.224;2023-12-14T12:16:56;8.80;99.90
20712;DHT22;10517;50.742;4.224;2023-12-14T12:19:21;8.80;99.90
20712;DHT22;10517;50.742;4.224;2023-12-14T12:21:47;8.80;99.90
20712;DHT22;10517;50.742;4.224;2023-12-14T12:24:12;8.90;99.90
20712;DHT22;10517;50.742;4.224;2023-12-14T12:26:38;9.00;99.90
20712;DHT22;10517;50.742;4.224;2023-12-14T12:29:03;9.00;99.90
20712;DHT22;10517;50.742;4.224;2023-12-14T12:31:31;9.10;99.90
20712;DHT22;10517;50.742;4.224;2023-12-14T12:33:57;9.20;99.90
20712;DHT22;10517;50.742;4.224;2023-12-14T12:36:22;9.10;99.90
20712;DHT22;10517;50.742;4.224;2023-12-14T12:38:48;9.30;99.90
20712;DHT22;10517;50.742;4.224;2023-12-14T12:41:14;9.40;99.90
20712;DHT22;10517;50.742;4.224;2023-12-14T12:43:39;9.40;99.90
20712;DHT22;10517;50.742;4.224;2023-12-14T12:46:05;9.50;99.90
20712;DHT22;10517;50.742;4.224;2023-12-14T12:48:30;9.50;99.90
20712;DHT22;10517;50.742;4.224;2023-12-14T12:50:56;9.50;99.90
20712;DHT22;10517;50.742;4.224;2023-12-14T12:53:21;9.60;99.90
20712;DHT22;10517;50.742;4.224;2023-12-14T12:55:47;9.70;99.90
20712;DHT22;10517;50.742;4.224;2023-12-14T12:58:13;9.80;99.90
20712;DHT22;10517;50.742;4.224;2023-12-14T13:00:40;9.90;99.90
20712;DHT22;10517;50.742;4.224;2023-12-14T13:03:05;9.70;99.90
20712;DHT22;10517;50.742;4.224;2023-12-14T13:05:31;9.70;99.90
20712;DHT22;10517;50.742;4.224;2023-12-14T13:07:56;9.80;99.90
20712;DHT22;10517;50.742;4.224;2023-12-14T13:10:23;9.80;99.90
20712;DHT22;10517;50.742;4.224;2023-12-14T13:12:52;9.80;99.90
20712;DHT22;10517;50.742;4.224;2023-12-14T13:15:18;9.90;99.90
20712;DHT22;10517;50.742;4.224;2023-12-14T13:17:44;9.90;99.90
20712;DHT22;10517;50.742;4.224;2023-12-14T13:20:10;9.90;99.90
20712;DHT22;10517;50.742;4.224;2023-12-14T13:22:35;9.80;99.90
20712;DHT22;10517;50.742;4.224;2023-12-14T13:25:01;9.90;99.90
20712;DHT22;10517;50.742;4.224;2023-12-14T13:27:28;10.00;99.90
20712;DHT22;10517;50.742;4.224;2023-12-14T13:29:53;10.00;99.90
20712;DHT22;10517;50.742;4.224;2023-12-14T13:32:19;9.90;99.90
20712;DHT22;10517;50.742;4.224;2023-12-14T13:34:45;9.70;99.90
20712;DHT22;10517;50.742;4.224;2023-12-14T13:37:10;9.60;99.90
20712;DHT22;10517;50.742;4.224;2023-12-14T13:39:36;9.60;99.90
20712;DHT22;10517;50.742;4.224;2023-12-14T13:42:06;9.60;99.90
20712;DHT22;10517;50.742;4.224;2023-12-14T13:44:32;9.60;99.90
20712;DHT22;10517;50.742;4.224;2023-12-14T13:47:01;9.40;99.90
20712;DHT22;10517;50.742;4.224;2023-12-14T13:49:26;9.40;99.90
20712;DHT22;10517;50.742;4.224;2023-12-14T13:51:52;9.40;99.90
20712;DHT22;10517;50.742;4.224;2023-12-14T13:54:18;9.40;99.90
20712;DHT22;10517;50.742;4.224;2023-12-14T13:56:43;9.50;99.90
20712;DHT22;10517;50.742;4.224;2023-12-14T13:59:09;9.50;99.90
20712;DHT22;10517;50.742;4.224;2023-12-14T14:01:34;9.40;99.90
20712;DHT22;10517;50.742;4.224;2023-12-14T14:04:00;9.40;99.90
20712;DHT22;10517;50.742;4.224;2023-12-14T14:06:25;9.50;99.90
20712;DHT22;10517;50.742;4.224;2023-12-14T14:08:51;9.30;99.90
20712;DHT22;10517;50.742;4.224;2023-12-14T14:11:17;9.10;99.90
20712;DHT22;10517;50.742;4.224;2023-12-14T14:13:42;9.00;99.90
20712;DHT22;10517;50.742;4.224;2023-12-14T14:16:08;9.00;99.90
20712;DHT22;10517;50.742;4.224;2023-12-14T14:18:34;8.90;99.90
20712;DHT22;10517;50.742;4.224;2023-12-14T14:21:00;8.90;99.90
20712;DHT22;10517;50.742;4.224;2023-12-14T14:23:26;8.90;99.90
20712;DHT22;10517;50.742;4.224;2023-12-14T14:25:52;9.00;99.90
20712;DHT22;10517;50.742;4.224;2023-12-14T14:28:21;9.10;99.90
20712;DHT22;10517;50.742;4.224;2023-12-14T14:30:48;9.20;99.90
20712;DHT22;10517;50.742;4.224;2023-12-14T14:33:14;9.20;99.90
20712;DHT22;10517;50.742;4.224;2023-12-14T14:35:46;9.30;99.90
20712;DHT22;10517;50.742;4.224;2023-12-14T14:38:13;9.30;99.90
20712;DHT22;10517;50.742;4.224;2023-12-14T14:40:39;9.30;99.90
20712;DHT22;10517;50.742;4.224;2023-12-14T14:43:04;9.40;99.90
20712;DHT22;10517;50.742;4.224;2023-12-14T14:45:30;9.40;99.90
20712;DHT22;10517;50.742;4.224;2023-12-14T14:47:56;9.40;99.90
20712;DHT22;10517;50.742;4.224;2023-12-14T14:50:21;9.40;99.90
20712;DHT22;10517;50.742;4.224;2023-12-14T14:52:47;9.30;99.90
20712;DHT22;10517;50.742;4.224;2023-12-14T14:55:13;9.20;99.90
20712;DHT22;10517;50.742;4.224;2023-12-14T14:57:39;9.20;99.90
20712;DHT22;10517;50.742;4.224;2023-12-14T15:00:05;9.00;99.90
20712;DHT22;10517;50.742;4.224;2023-12-14T15:02:31;8.70;99.90
20712;DHT22;10517;50.742;4.224;2023-12-14T15:04:57;8.60;99.90
20712;DHT22;10517;50.742;4.224;2023-12-14T15:07:22;8.60;99.90
20712;DHT22;10517;50.742;4.224;2023-12-14T15:09:48;8.60;99.90
20712;DHT22;10517;50.742;4.224;2023-12-14T15:12:14;8.60;99.90
20712;DHT22;10517;50.742;4.224;2023-12-14T15:14:39;8.60;99.90
20712;DHT22;10517;50.742;4.224;2023-12-14T15:17:05;8.60;99.90
20712;DHT22;10517;50.742;4.224;2023-12-14T15:19:30;8.60;99.90
20712;DHT22;10517;50.742;4.224;2023-12-14T15:21:56;8.60;99.90
20712;DHT22;10517;50.742;4.224;2023-12-14T15:24:22;8.60;99.90
20712;DHT22;10517;50.742;4.224;2023-12-14T15:26:48;8.60;99.90
20712;DHT22;10517;50.742;4.224;2023-12-14T15:29:14;8.60;99.90
20712;DHT22;10517;50.742;4.224;2023-12-14T15:31:40;8.60;99.90
20712;DHT22;10517;50.742;4.224;2023-12-14T15:34:06;8.50;99.90
20712;DHT22;10517;50.742;4.224;2023-12-14T15:36:34;8.40;99.90
20712;DHT22;10517;50.742;4.224;2023-12-14T15:39:00;8.40;99.90
20712;DHT22;10517;50.742;4.224;2023-12-14T15:41:26;8.40;99.90